createdAt,value
2022-11-29T00:00:21.322Z,800.00
2022-11-29T00:00:51.364Z,800.00
2022-11-29T00:01:21.420Z,800.00
2022-11-29T00:01:51.656Z,802.00
2022-11-29T00:02:21.646Z,803.00
2022-11-29T00:02:51.635Z,805.00
2022-11-29T00:03:21.715Z,800.00
2022-11-29T00:03:51.632Z,803.00
2022-11-29T00:04:21.716Z,802.00
2022-11-29T00:04:51.834Z,803.00
2022-11-29T00:05:21.867Z,803.00
2022-11-29T00:05:51.866Z,801.00
2022-11-29T00:06:22.447Z,803.00
2022-11-29T00:06:51.978Z,801.00
2022-11-29T00:07:22.040Z,802.00
2022-11-29T00:07:52.125Z,799.00
2022-11-29T00:08:22.135Z,800.00
2022-11-29T00:08:52.150Z,792.00
2022-11-29T00:09:22.155Z,796.00
2022-11-29T00:09:52.153Z,795.00
2022-11-29T00:10:22.156Z,797.00
2022-11-29T00:10:52.183Z,800.00
2022-11-29T00:11:22.189Z,798.00
2022-11-29T00:11:52.225Z,799.00
2022-11-29T00:12:22.273Z,798.00
2022-11-29T00:12:52.341Z,799.00
2022-11-29T00:13:22.413Z,798.00
2022-11-29T00:13:52.462Z,791.00
2022-11-29T00:14:22.514Z,801.00
2022-11-29T00:14:52.557Z,797.00
2022-11-29T00:15:22.604Z,797.00
2022-11-29T00:15:52.693Z,793.00
2022-11-29T00:16:22.822Z,796.00
2022-11-29T00:16:52.862Z,797.00
2022-11-29T00:17:22.851Z,795.00
2022-11-29T00:17:52.912Z,796.00
2022-11-29T00:18:22.964Z,794.00
2022-11-29T00:18:53.010Z,796.00
2022-11-29T00:19:23.088Z,796.00
2022-11-29T00:19:53.120Z,796.00
2022-11-29T00:20:23.199Z,794.00
2022-11-29T00:20:53.245Z,793.00
2022-11-29T00:21:23.301Z,793.00
2022-11-29T00:21:53.335Z,791.00
2022-11-29T00:22:23.387Z,792.00
2022-11-29T00:22:53.439Z,794.00
2022-11-29T00:23:23.491Z,794.00
2022-11-29T00:23:53.536Z,793.00
2022-11-29T00:24:23.585Z,793.00
2022-11-29T00:24:53.622Z,793.00
2022-11-29T00:25:23.674Z,793.00
2022-11-29T00:25:53.765Z,791.00
2022-11-29T00:26:23.813Z,793.00
2022-11-29T00:26:53.860Z,791.00
2022-11-29T00:27:23.913Z,796.00
2022-11-29T00:27:53.956Z,794.00
2022-11-29T00:28:24.013Z,793.00
2022-11-29T00:28:54.066Z,794.00
2022-11-29T00:29:24.118Z,788.00
2022-11-29T00:29:54.161Z,786.00
2022-11-29T00:30:24.291Z,787.00
2022-11-29T00:30:54.254Z,786.00
2022-11-29T00:31:24.297Z,786.00
2022-11-29T00:31:54.343Z,786.00
2022-11-29T00:32:24.394Z,786.00
2022-11-29T00:32:54.447Z,784.00
2022-11-29T00:33:24.493Z,781.00
2022-11-29T00:33:54.535Z,786.00
2022-11-29T00:34:24.603Z,783.00
2022-11-29T00:34:58.251Z,780.00
2022-11-29T00:35:24.744Z,783.00
2022-11-29T00:35:54.817Z,781.00
2022-11-29T00:36:24.846Z,781.00
2022-11-29T00:36:54.898Z,783.00
2022-11-29T00:37:24.946Z,782.00
2022-11-29T00:37:54.997Z,779.00
2022-11-29T00:38:25.034Z,780.00
2022-11-29T00:38:55.085Z,781.00
2022-11-29T00:39:25.135Z,781.00
2022-11-29T00:39:55.188Z,784.00
2022-11-29T00:40:25.238Z,780.00
2022-11-29T00:40:55.313Z,777.00
2022-11-29T00:41:25.355Z,779.00
2022-11-29T00:41:55.411Z,779.00
2022-11-29T00:42:25.482Z,781.00
2022-11-29T00:42:55.555Z,778.00
2022-11-29T00:43:25.653Z,779.00
2022-11-29T00:43:55.615Z,780.00
2022-11-29T00:44:25.672Z,779.00
2022-11-29T00:44:55.724Z,777.00
2022-11-29T00:45:25.769Z,778.00
2022-11-29T00:45:55.853Z,780.00
2022-11-29T00:46:25.924Z,779.00
2022-11-29T00:46:55.857Z,788.00
2022-11-29T00:47:25.917Z,784.00
2022-11-29T00:47:55.954Z,783.00
2022-11-29T00:48:26.022Z,780.00
2022-11-29T00:48:56.084Z,777.00
2022-11-29T00:49:26.133Z,780.00
2022-11-29T00:49:56.176Z,779.00
2022-11-29T00:50:26.227Z,780.00
2022-11-29T00:50:56.272Z,780.00
2022-11-29T00:51:26.357Z,781.00
2022-11-29T00:51:56.390Z,781.00
2022-11-29T00:52:26.439Z,782.00
2022-11-29T00:52:56.479Z,781.00
2022-11-29T00:53:26.545Z,782.00
2022-11-29T00:53:56.589Z,780.00
2022-11-29T00:54:26.643Z,780.00
2022-11-29T00:54:56.686Z,782.00
2022-11-29T00:55:26.737Z,781.00
2022-11-29T00:55:56.795Z,781.00
2022-11-29T00:56:26.864Z,782.00
2022-11-29T00:56:56.901Z,783.00
2022-11-29T00:57:26.943Z,784.00
2022-11-29T00:57:56.996Z,784.00
2022-11-29T00:58:27.058Z,784.00
2022-11-29T00:58:57.109Z,783.00
2022-11-29T00:59:27.151Z,782.00
2022-11-29T00:59:57.197Z,779.00
2022-11-29T01:00:27.251Z,780.00
2022-11-29T01:00:57.388Z,776.00
2022-11-29T01:01:27.490Z,774.00
2022-11-29T01:01:57.553Z,772.00
2022-11-29T01:02:27.568Z,770.00
2022-11-29T01:02:57.572Z,769.00
2022-11-29T01:03:27.585Z,770.00
2022-11-29T01:03:57.586Z,771.00
2022-11-29T01:04:27.594Z,772.00
2022-11-29T01:04:57.596Z,771.00
2022-11-29T01:05:27.604Z,766.00
2022-11-29T01:05:57.633Z,766.00
2022-11-29T01:06:27.639Z,767.00
2022-11-29T01:06:57.681Z,765.00
2022-11-29T01:07:27.734Z,767.00
2022-11-29T01:07:57.794Z,766.00
2022-11-29T01:08:27.814Z,766.00
2022-11-29T01:08:57.821Z,766.00
2022-11-29T01:09:27.830Z,766.00
2022-11-29T01:09:57.902Z,768.00
2022-11-29T01:10:27.924Z,767.00
2022-11-29T01:10:58.019Z,769.00
2022-11-29T01:11:28.006Z,765.00
2022-11-29T01:11:58.050Z,762.00
2022-11-29T01:12:28.119Z,759.00
2022-11-29T01:12:58.268Z,759.00
2022-11-29T01:13:28.190Z,761.00
2022-11-29T01:13:58.235Z,759.00
2022-11-29T01:14:28.279Z,759.00
2022-11-29T01:14:58.328Z,758.00
2022-11-29T01:15:28.382Z,760.00
2022-11-29T01:15:58.441Z,759.00
2022-11-29T01:16:28.595Z,758.00
2022-11-29T01:16:58.620Z,755.00
2022-11-29T01:17:28.669Z,760.00
2022-11-29T01:17:58.725Z,758.00
2022-11-29T01:18:28.778Z,760.00
2022-11-29T01:18:58.832Z,759.00
2022-11-29T01:19:28.894Z,759.00
2022-11-29T01:19:58.937Z,759.00
2022-11-29T01:20:28.988Z,760.00
2022-11-29T01:20:59.061Z,762.00
2022-11-29T01:21:29.143Z,758.00
2022-11-29T01:21:59.195Z,758.00
2022-11-29T01:22:29.287Z,760.00
2022-11-29T01:22:59.338Z,758.00
2022-11-29T01:23:29.402Z,760.00
2022-11-29T01:23:59.467Z,760.00
2022-11-29T01:24:29.520Z,761.00
2022-11-29T01:24:59.577Z,764.00
2022-11-29T01:25:29.634Z,764.00
2022-11-29T01:25:59.672Z,761.00
2022-11-29T01:26:29.746Z,759.00
2022-11-29T01:26:59.791Z,757.00
2022-11-29T01:27:29.852Z,754.00
2022-11-29T01:27:59.939Z,755.00
2022-11-29T01:28:30.014Z,754.00
2022-11-29T01:29:00.085Z,754.00
2022-11-29T01:29:30.129Z,753.00
2022-11-29T01:30:00.179Z,752.00
2022-11-29T01:30:30.393Z,756.00
2022-11-29T01:31:00.515Z,755.00
2022-11-29T01:31:30.411Z,753.00
2022-11-29T01:32:00.425Z,750.00
2022-11-29T01:32:30.522Z,752.00
2022-11-29T01:33:00.543Z,750.00
2022-11-29T01:33:30.609Z,749.00
2022-11-29T01:34:00.677Z,750.00
2022-11-29T01:34:30.753Z,749.00
2022-11-29T01:35:00.839Z,750.00
2022-11-29T01:35:30.935Z,750.00
2022-11-29T01:36:01.012Z,752.00
2022-11-29T01:36:31.079Z,749.00
2022-11-29T01:37:01.129Z,746.00
2022-11-29T01:37:31.178Z,745.00
2022-11-29T01:38:01.248Z,747.00
2022-11-29T01:38:31.278Z,748.00
2022-11-29T01:39:01.329Z,747.00
2022-11-29T01:39:31.373Z,748.00
2022-11-29T01:40:01.422Z,749.00
2022-11-29T01:40:31.477Z,748.00
2022-11-29T01:41:01.555Z,750.00
2022-11-29T01:41:31.601Z,751.00
2022-11-29T01:42:01.646Z,751.00
2022-11-29T01:42:31.694Z,749.00
2022-11-29T01:43:01.745Z,749.00
2022-11-29T01:43:31.810Z,749.00
2022-11-29T01:44:01.846Z,748.00
2022-11-29T01:44:31.891Z,748.00
2022-11-29T01:45:01.944Z,747.00
2022-11-29T01:45:32.057Z,748.00
2022-11-29T01:46:02.036Z,748.00
2022-11-29T01:46:32.064Z,746.00
2022-11-29T01:47:02.119Z,745.00
2022-11-29T01:47:32.169Z,744.00
2022-11-29T01:48:02.223Z,742.00
2022-11-29T01:48:32.273Z,746.00
2022-11-29T01:49:02.316Z,746.00
2022-11-29T01:49:32.365Z,744.00
2022-11-29T01:50:02.408Z,744.00
2022-11-29T01:50:32.468Z,741.00
2022-11-29T01:51:02.536Z,741.00
2022-11-29T01:51:32.583Z,740.00
2022-11-29T01:52:02.634Z,739.00
2022-11-29T01:52:32.690Z,738.00
2022-11-29T01:53:02.767Z,740.00
2022-11-29T01:53:32.814Z,739.00
2022-11-29T01:54:02.859Z,740.00
2022-11-29T01:54:32.969Z,744.00
2022-11-29T01:55:03.028Z,744.00
2022-11-29T01:55:33.183Z,743.00
2022-11-29T01:56:03.237Z,744.00
2022-11-29T01:56:33.213Z,741.00
2022-11-29T01:57:03.268Z,740.00
2022-11-29T01:57:33.331Z,744.00
2022-11-29T01:58:03.389Z,742.00
2022-11-29T01:58:33.428Z,741.00
2022-11-29T01:59:03.471Z,741.00
2022-11-29T01:59:33.523Z,741.00
2022-11-29T02:00:03.591Z,740.00
2022-11-29T02:00:33.646Z,740.00
2022-11-29T02:01:03.779Z,740.00
2022-11-29T02:01:33.748Z,741.00
2022-11-29T02:02:03.952Z,743.00
2022-11-29T02:02:33.890Z,740.00
2022-11-29T02:03:03.890Z,739.00
2022-11-29T02:03:33.886Z,739.00
2022-11-29T02:04:03.897Z,740.00
2022-11-29T02:04:33.898Z,740.00
2022-11-29T02:05:03.902Z,742.00
2022-11-29T02:05:33.923Z,740.00
2022-11-29T02:06:03.928Z,741.00
2022-11-29T02:06:33.957Z,740.00
2022-11-29T02:07:03.949Z,739.00
2022-11-29T02:07:33.997Z,739.00
2022-11-29T02:08:04.005Z,737.00
2022-11-29T02:08:34.036Z,740.00
2022-11-29T02:09:04.004Z,739.00
2022-11-29T02:09:34.010Z,738.00
2022-11-29T02:10:04.031Z,738.00
2022-11-29T02:10:34.039Z,735.00
2022-11-29T02:11:04.050Z,737.00
2022-11-29T02:11:34.490Z,737.00
2022-11-29T02:12:04.083Z,737.00
2022-11-29T02:12:34.130Z,740.00
2022-11-29T02:13:04.182Z,737.00
2022-11-29T02:13:34.243Z,739.00
2022-11-29T02:14:04.287Z,739.00
2022-11-29T02:14:34.339Z,742.00
2022-11-29T02:15:04.392Z,738.00
2022-11-29T02:15:34.583Z,740.00
2022-11-29T02:16:04.607Z,739.00
2022-11-29T02:16:34.547Z,739.00
2022-11-29T02:17:04.592Z,739.00
2022-11-29T02:17:34.644Z,738.00
2022-11-29T02:18:04.703Z,738.00
2022-11-29T02:18:34.759Z,737.00
2022-11-29T02:19:04.806Z,736.00
2022-11-29T02:19:34.846Z,737.00
2022-11-29T02:20:04.938Z,736.00
2022-11-29T02:20:34.976Z,736.00
2022-11-29T02:21:05.035Z,736.00
2022-11-29T02:21:35.085Z,740.00
2022-11-29T02:22:05.141Z,742.00
2022-11-29T02:22:35.198Z,741.00
2022-11-29T02:23:05.259Z,736.00
2022-11-29T02:23:35.306Z,734.00
2022-11-29T02:24:05.388Z,735.00
2022-11-29T02:24:35.396Z,737.00
2022-11-29T02:25:05.452Z,736.00
2022-11-29T02:25:35.505Z,737.00
2022-11-29T02:26:05.559Z,735.00
2022-11-29T02:26:35.604Z,735.00
2022-11-29T02:27:05.657Z,734.00
2022-11-29T02:27:35.712Z,733.00
2022-11-29T02:28:05.765Z,732.00
2022-11-29T02:28:35.809Z,730.00
2022-11-29T02:29:05.849Z,730.00
2022-11-29T02:29:35.906Z,729.00
2022-11-29T02:30:05.962Z,727.00
2022-11-29T02:30:36.064Z,729.00
2022-11-29T02:31:06.141Z,732.00
2022-11-29T02:31:36.171Z,731.00
2022-11-29T02:32:06.243Z,732.00
2022-11-29T02:32:36.296Z,733.00
2022-11-29T02:33:06.355Z,732.00
2022-11-29T02:33:36.389Z,732.00
2022-11-29T02:34:06.434Z,732.00
2022-11-29T02:34:36.493Z,732.00
2022-11-29T02:35:06.535Z,732.00
2022-11-29T02:35:36.582Z,731.00
2022-11-29T02:36:06.623Z,730.00
2022-11-29T02:36:36.680Z,732.00
2022-11-29T02:37:11.388Z,731.00
2022-11-29T02:37:36.746Z,730.00
2022-11-29T02:38:06.796Z,731.00
2022-11-29T02:38:36.834Z,732.00
2022-11-29T02:39:06.886Z,735.00
2022-11-29T02:39:36.968Z,736.00
2022-11-29T02:40:06.990Z,737.00
2022-11-29T02:40:37.038Z,736.00
2022-11-29T02:41:07.090Z,735.00
2022-11-29T02:41:37.150Z,735.00
2022-11-29T02:42:07.207Z,734.00
2022-11-29T02:42:37.254Z,734.00
2022-11-29T02:43:07.301Z,735.00
2022-11-29T02:43:37.343Z,737.00
2022-11-29T02:44:07.390Z,734.00
2022-11-29T02:44:37.453Z,734.00
2022-11-29T02:45:07.509Z,733.00
2022-11-29T02:45:37.560Z,733.00
2022-11-29T02:46:07.686Z,733.00
2022-11-29T02:46:37.707Z,731.00
2022-11-29T02:47:07.767Z,733.00
2022-11-29T02:47:37.818Z,734.00
2022-11-29T02:48:07.869Z,734.00
2022-11-29T02:48:37.913Z,735.00
2022-11-29T02:49:07.971Z,733.00
2022-11-29T02:49:38.025Z,731.00
2022-11-29T02:50:08.076Z,730.00
2022-11-29T02:50:38.163Z,730.00
2022-11-29T02:51:08.220Z,729.00
2022-11-29T02:51:38.284Z,729.00
2022-11-29T02:52:08.351Z,729.00
2022-11-29T02:52:38.412Z,731.00
2022-11-29T02:53:08.457Z,731.00
2022-11-29T02:53:38.512Z,728.00
2022-11-29T02:54:08.563Z,730.00
2022-11-29T02:54:38.620Z,730.00
2022-11-29T02:55:08.696Z,731.00
2022-11-29T02:55:38.715Z,731.00
2022-11-29T02:56:08.770Z,728.00
2022-11-29T02:56:38.817Z,728.00
2022-11-29T02:57:08.882Z,729.00
2022-11-29T02:57:38.924Z,728.00
2022-11-29T02:58:08.976Z,727.00
2022-11-29T02:58:39.027Z,728.00
2022-11-29T02:59:09.080Z,729.00
2022-11-29T02:59:39.127Z,728.00
2022-11-29T03:00:09.201Z,727.00
2022-11-29T03:00:39.250Z,725.00
2022-11-29T03:01:09.350Z,724.00
2022-11-29T03:01:39.447Z,723.00
2022-11-29T03:02:09.534Z,723.00
2022-11-29T03:02:39.611Z,724.00
2022-11-29T03:03:09.598Z,724.00
2022-11-29T03:03:39.605Z,722.00
2022-11-29T03:04:09.621Z,720.00
2022-11-29T03:04:39.616Z,721.00
2022-11-29T03:05:09.616Z,719.00
2022-11-29T03:05:39.632Z,720.00
2022-11-29T03:06:09.647Z,721.00
2022-11-29T03:06:39.652Z,718.00
2022-11-29T03:07:09.675Z,718.00
2022-11-29T03:07:39.749Z,718.00
2022-11-29T03:08:09.753Z,719.00
2022-11-29T03:08:39.758Z,720.00
2022-11-29T03:09:09.837Z,726.00
2022-11-29T03:09:39.907Z,728.00
2022-11-29T03:10:09.905Z,723.00
2022-11-29T03:10:40.013Z,725.00
2022-11-29T03:11:09.921Z,725.00
2022-11-29T03:11:39.957Z,724.00
2022-11-29T03:12:10.003Z,722.00
2022-11-29T03:12:40.057Z,724.00
2022-11-29T03:13:10.115Z,723.00
2022-11-29T03:13:40.165Z,721.00
2022-11-29T03:14:10.219Z,720.00
2022-11-29T03:14:40.273Z,721.00
2022-11-29T03:15:10.338Z,718.00
2022-11-29T03:15:40.483Z,717.00
2022-11-29T03:16:10.463Z,717.00
2022-11-29T03:16:43.251Z,715.00
2022-11-29T03:17:10.634Z,714.00
2022-11-29T03:17:40.721Z,715.00
2022-11-29T03:18:10.798Z,717.00
2022-11-29T03:18:40.853Z,719.00
2022-11-29T03:19:10.922Z,717.00
2022-11-29T03:19:40.996Z,717.00
2022-11-29T03:20:11.081Z,715.00
2022-11-29T03:20:41.148Z,714.00
2022-11-29T03:21:11.181Z,714.00
2022-11-29T03:21:41.228Z,714.00
2022-11-29T03:22:11.338Z,713.00
2022-11-29T03:22:41.388Z,713.00
2022-11-29T03:23:11.445Z,714.00
2022-11-29T03:23:41.492Z,713.00
2022-11-29T03:24:11.526Z,714.00
2022-11-29T03:24:41.747Z,712.00
2022-11-29T03:25:11.654Z,714.00
2022-11-29T03:25:41.725Z,710.00
2022-11-29T03:26:11.746Z,714.00
2022-11-29T03:26:41.804Z,716.00
2022-11-29T03:27:11.874Z,717.00
2022-11-29T03:27:41.931Z,717.00
2022-11-29T03:28:11.982Z,717.00
2022-11-29T03:28:42.024Z,715.00
2022-11-29T03:29:12.070Z,713.00
2022-11-29T03:29:42.124Z,715.00
2022-11-29T03:30:12.172Z,713.00
2022-11-29T03:30:42.269Z,713.00
2022-11-29T03:31:12.362Z,712.00
2022-11-29T03:31:42.403Z,710.00
2022-11-29T03:32:12.473Z,710.00
2022-11-29T03:32:42.515Z,709.00
2022-11-29T03:33:12.562Z,711.00
2022-11-29T03:33:42.610Z,712.00
2022-11-29T03:34:12.656Z,712.00
2022-11-29T03:34:43.075Z,712.00
2022-11-29T03:35:12.811Z,713.00
2022-11-29T03:35:42.864Z,714.00
2022-11-29T03:36:12.926Z,715.00
2022-11-29T03:36:42.969Z,712.00
2022-11-29T03:37:13.030Z,713.00
2022-11-29T03:37:43.074Z,711.00
2022-11-29T03:38:13.140Z,712.00
2022-11-29T03:38:43.196Z,712.00
2022-11-29T03:39:13.263Z,713.00
2022-11-29T03:39:43.371Z,712.00
2022-11-29T03:40:13.446Z,711.00
2022-11-29T03:40:43.489Z,709.00
2022-11-29T03:41:13.577Z,709.00
2022-11-29T03:41:43.595Z,710.00
2022-11-29T03:42:13.661Z,710.00
2022-11-29T03:42:43.720Z,713.00
2022-11-29T03:43:13.775Z,713.00
2022-11-29T03:43:43.832Z,712.00
2022-11-29T03:44:13.883Z,712.00
2022-11-29T03:44:44.275Z,711.00
2022-11-29T03:45:14.023Z,710.00
2022-11-29T03:45:44.080Z,706.00
2022-11-29T03:46:14.177Z,706.00
2022-11-29T03:46:44.245Z,706.00
2022-11-29T03:47:14.297Z,706.00
2022-11-29T03:47:44.349Z,707.00
2022-11-29T03:48:14.393Z,707.00
2022-11-29T03:48:44.444Z,703.00
2022-11-29T03:49:14.506Z,703.00
2022-11-29T03:49:44.563Z,703.00
2022-11-29T03:50:14.610Z,703.00
2022-11-29T03:50:44.656Z,703.00
2022-11-29T03:51:14.703Z,703.00
2022-11-29T03:51:44.758Z,705.00
2022-11-29T03:52:14.808Z,707.00
2022-11-29T03:52:44.863Z,706.00
2022-11-29T03:53:14.906Z,706.00
2022-11-29T03:53:44.988Z,708.00
2022-11-29T03:54:14.976Z,706.00
2022-11-29T03:54:45.394Z,704.00
2022-11-29T03:55:15.134Z,701.00
2022-11-29T03:55:45.196Z,701.00
2022-11-29T03:56:15.247Z,703.00
2022-11-29T03:56:45.369Z,704.00
2022-11-29T03:57:15.422Z,704.00
2022-11-29T03:57:45.510Z,705.00
2022-11-29T03:58:15.569Z,703.00
2022-11-29T03:58:45.618Z,704.00
2022-11-29T03:59:15.671Z,703.00
2022-11-29T03:59:45.783Z,702.00
2022-11-29T04:00:15.736Z,700.00
2022-11-29T04:00:45.784Z,699.00
2022-11-29T04:01:15.927Z,699.00
2022-11-29T04:01:45.985Z,701.00
2022-11-29T04:02:15.961Z,701.00
2022-11-29T04:02:45.998Z,699.00
2022-11-29T04:03:16.040Z,700.00
2022-11-29T04:03:46.081Z,697.00
2022-11-29T04:04:16.196Z,698.00
2022-11-29T04:04:46.541Z,699.00
2022-11-29T04:05:16.272Z,702.00
2022-11-29T04:05:46.305Z,703.00
2022-11-29T04:06:16.305Z,700.00
2022-11-29T04:06:46.317Z,700.00
2022-11-29T04:07:16.413Z,699.00
2022-11-29T04:07:46.375Z,701.00
2022-11-29T04:08:16.404Z,701.00
2022-11-29T04:08:46.427Z,700.00
2022-11-29T04:09:16.451Z,701.00
2022-11-29T04:09:46.456Z,701.00
2022-11-29T04:10:16.506Z,704.00
2022-11-29T04:10:46.554Z,703.00
2022-11-29T04:11:16.525Z,703.00
2022-11-29T04:11:46.568Z,702.00
2022-11-29T04:12:16.638Z,705.00
2022-11-29T04:12:46.668Z,701.00
2022-11-29T04:13:16.719Z,702.00
2022-11-29T04:13:46.779Z,702.00
2022-11-29T04:14:16.828Z,703.00
2022-11-29T04:14:47.125Z,701.00
2022-11-29T04:15:16.866Z,700.00
2022-11-29T04:15:46.945Z,700.00
2022-11-29T04:16:17.074Z,699.00
2022-11-29T04:16:47.009Z,701.00
2022-11-29T04:17:17.061Z,702.00
2022-11-29T04:17:47.107Z,700.00
2022-11-29T04:18:17.158Z,703.00
2022-11-29T04:18:47.219Z,702.00
2022-11-29T04:19:17.261Z,704.00
2022-11-29T04:19:47.318Z,703.00
2022-11-29T04:20:17.375Z,701.00
2022-11-29T04:20:48.529Z,700.00
2022-11-29T04:21:17.518Z,697.00
2022-11-29T04:21:47.570Z,696.00
2022-11-29T04:22:17.612Z,698.00
2022-11-29T04:22:47.672Z,695.00
2022-11-29T04:23:17.729Z,693.00
2022-11-29T04:23:47.770Z,694.00
2022-11-29T04:24:17.814Z,697.00
2022-11-29T04:24:47.869Z,695.00
2022-11-29T04:25:17.926Z,693.00
2022-11-29T04:25:47.975Z,696.00
2022-11-29T04:26:18.035Z,697.00
2022-11-29T04:26:48.086Z,695.00
2022-11-29T04:27:18.135Z,695.00
2022-11-29T04:27:48.223Z,697.00
2022-11-29T04:28:18.273Z,698.00
2022-11-29T04:28:48.311Z,697.00
2022-11-29T04:29:18.351Z,699.00
2022-11-29T04:29:48.410Z,699.00
2022-11-29T04:30:18.453Z,697.00
2022-11-29T04:30:48.566Z,696.00
2022-11-29T04:31:18.735Z,697.00
2022-11-29T04:31:48.716Z,700.00
2022-11-29T04:32:18.667Z,699.00
2022-11-29T04:32:48.718Z,699.00
2022-11-29T04:33:18.806Z,700.00
2022-11-29T04:33:48.866Z,699.00
2022-11-29T04:34:18.905Z,697.00
2022-11-29T04:34:48.966Z,692.00
2022-11-29T04:35:19.037Z,693.00
2022-11-29T04:35:49.077Z,693.00
2022-11-29T04:36:19.123Z,692.00
2022-11-29T04:36:49.173Z,696.00
2022-11-29T04:37:19.218Z,695.00
2022-11-29T04:37:49.270Z,695.00
2022-11-29T04:38:19.327Z,695.00
2022-11-29T04:38:49.388Z,694.00
2022-11-29T04:39:19.420Z,690.00
2022-11-29T04:39:49.502Z,692.00
2022-11-29T04:40:19.549Z,695.00
2022-11-29T04:40:49.603Z,692.00
2022-11-29T04:41:19.708Z,691.00
2022-11-29T04:41:49.696Z,693.00
2022-11-29T04:42:19.754Z,693.00
2022-11-29T04:42:49.823Z,696.00
2022-11-29T04:43:19.979Z,699.00
2022-11-29T04:43:49.917Z,694.00
2022-11-29T04:44:19.962Z,692.00
2022-11-29T04:44:50.021Z,693.00
2022-11-29T04:45:20.066Z,691.00
2022-11-29T04:45:50.111Z,691.00
2022-11-29T04:46:20.240Z,690.00
2022-11-29T04:46:50.268Z,690.00
2022-11-29T04:47:20.316Z,688.00
2022-11-29T04:47:50.420Z,691.00
2022-11-29T04:48:20.477Z,688.00
2022-11-29T04:48:50.524Z,687.00
2022-11-29T04:49:20.577Z,685.00
2022-11-29T04:49:50.631Z,687.00
2022-11-29T04:50:20.688Z,687.00
2022-11-29T04:50:50.726Z,685.00
2022-11-29T04:51:20.766Z,686.00
2022-11-29T04:51:50.813Z,684.00
2022-11-29T04:52:20.876Z,683.00
2022-11-29T04:52:50.929Z,685.00
2022-11-29T04:53:21.014Z,686.00
2022-11-29T04:53:51.097Z,685.00
2022-11-29T04:54:21.164Z,684.00
2022-11-29T04:54:51.216Z,685.00
2022-11-29T04:55:27.842Z,685.00
2022-11-29T04:55:51.293Z,688.00
2022-11-29T04:56:21.342Z,691.00
2022-11-29T04:56:51.392Z,693.00
2022-11-29T04:57:21.446Z,692.00
2022-11-29T04:57:51.505Z,696.00
2022-11-29T04:58:21.552Z,696.00
2022-11-29T04:58:51.628Z,697.00
2022-11-29T04:59:21.653Z,696.00
2022-11-29T04:59:51.697Z,697.00
2022-11-29T05:00:21.751Z,694.00
2022-11-29T05:00:51.808Z,692.00
2022-11-29T05:01:21.901Z,693.00
2022-11-29T05:01:51.893Z,691.00
2022-11-29T05:02:21.959Z,689.00
2022-11-29T05:02:52.035Z,692.00
2022-11-29T05:03:22.056Z,690.00
2022-11-29T05:03:56.850Z,689.00
2022-11-29T05:04:22.164Z,687.00
2022-11-29T05:04:52.175Z,687.00
2022-11-29T05:05:22.193Z,690.00
2022-11-29T05:05:52.199Z,690.00
2022-11-29T05:06:22.200Z,692.00
2022-11-29T05:06:52.223Z,689.00
2022-11-29T05:07:22.329Z,690.00
2022-11-29T05:07:52.285Z,686.00
2022-11-29T05:08:22.292Z,685.00
2022-11-29T05:08:52.302Z,696.00
2022-11-29T05:09:22.303Z,697.00
2022-11-29T05:09:52.311Z,697.00
2022-11-29T05:10:22.329Z,694.00
2022-11-29T05:10:52.331Z,693.00
2022-11-29T05:11:26.691Z,691.00
2022-11-29T05:11:52.396Z,692.00
2022-11-29T05:12:22.448Z,691.00
2022-11-29T05:12:52.537Z,690.00
2022-11-29T05:13:22.532Z,692.00
2022-11-29T05:13:52.555Z,691.00
2022-11-29T05:14:22.658Z,694.00
2022-11-29T05:14:52.704Z,696.00
2022-11-29T05:15:22.758Z,695.00
2022-11-29T05:15:52.886Z,697.00
2022-11-29T05:16:23.031Z,698.00
2022-11-29T05:16:52.982Z,698.00
2022-11-29T05:17:23.034Z,695.00
2022-11-29T05:17:53.076Z,694.00
2022-11-29T05:18:23.136Z,693.00
2022-11-29T05:18:53.179Z,692.00
2022-11-29T05:19:23.238Z,695.00
2022-11-29T05:19:53.291Z,708.00
2022-11-29T05:20:23.339Z,710.00
2022-11-29T05:20:53.393Z,709.00
2022-11-29T05:21:23.457Z,709.00
2022-11-29T05:21:53.550Z,711.00
2022-11-29T05:22:23.602Z,710.00
2022-11-29T05:22:53.649Z,711.00
2022-11-29T05:23:23.712Z,710.00
2022-11-29T05:23:53.763Z,711.00
2022-11-29T05:24:23.828Z,715.00
2022-11-29T05:24:53.882Z,715.00
2022-11-29T05:25:23.936Z,716.00
2022-11-29T05:25:53.985Z,717.00
2022-11-29T05:26:24.034Z,716.00
2022-11-29T05:26:54.075Z,716.00
2022-11-29T05:27:24.130Z,716.00
2022-11-29T05:27:54.193Z,716.00
2022-11-29T05:28:24.273Z,718.00
2022-11-29T05:28:54.330Z,717.00
2022-11-29T05:29:24.442Z,716.00
2022-11-29T05:29:54.503Z,716.00
2022-11-29T05:30:24.555Z,717.00
2022-11-29T05:30:54.684Z,716.00
2022-11-29T05:31:24.660Z,716.00
2022-11-29T05:31:54.704Z,717.00
2022-11-29T05:32:24.764Z,716.00
2022-11-29T05:32:54.812Z,718.00
2022-11-29T05:33:24.873Z,717.00
2022-11-29T05:33:54.919Z,717.00
2022-11-29T05:34:26.383Z,718.00
2022-11-29T05:34:55.041Z,716.00
2022-11-29T05:35:25.105Z,718.00
2022-11-29T05:35:55.152Z,719.00
2022-11-29T05:36:25.193Z,719.00
2022-11-29T05:36:55.244Z,719.00
2022-11-29T05:37:25.288Z,719.00
2022-11-29T05:37:55.350Z,717.00
2022-11-29T05:38:25.509Z,716.00
2022-11-29T05:38:55.441Z,717.00
2022-11-29T05:39:25.491Z,717.00
2022-11-29T05:39:55.540Z,719.00
2022-11-29T05:40:25.595Z,718.00
2022-11-29T05:40:55.643Z,719.00
2022-11-29T05:41:25.690Z,719.00
2022-11-29T05:41:55.750Z,719.00
2022-11-29T05:42:25.830Z,720.00
2022-11-29T05:42:55.932Z,720.00
2022-11-29T05:43:26.034Z,720.00
2022-11-29T05:43:56.095Z,719.00
2022-11-29T05:44:26.142Z,720.00
2022-11-29T05:44:56.231Z,718.00
2022-11-29T05:45:26.267Z,720.00
2022-11-29T05:45:56.311Z,722.00
2022-11-29T05:46:26.383Z,723.00
2022-11-29T05:46:56.427Z,724.00
2022-11-29T05:47:31.258Z,727.00
2022-11-29T05:47:56.501Z,726.00
2022-11-29T05:48:26.554Z,727.00
2022-11-29T05:48:56.611Z,728.00
2022-11-29T05:49:26.667Z,729.00
2022-11-29T05:49:56.729Z,733.00
2022-11-29T05:50:26.787Z,731.00
2022-11-29T05:50:56.825Z,734.00
2022-11-29T05:51:26.873Z,737.00
2022-11-29T05:51:56.938Z,741.00
2022-11-29T05:52:27.005Z,740.00
2022-11-29T05:52:57.056Z,740.00
2022-11-29T05:53:27.113Z,739.00
2022-11-29T05:53:57.165Z,739.00
2022-11-29T05:54:27.239Z,739.00
2022-11-29T05:54:57.279Z,738.00
2022-11-29T05:55:27.333Z,737.00
2022-11-29T05:55:57.377Z,738.00
2022-11-29T05:56:27.419Z,736.00
2022-11-29T05:56:57.464Z,737.00
2022-11-29T05:57:27.521Z,739.00
2022-11-29T05:57:57.579Z,739.00
2022-11-29T05:58:30.551Z,740.00
2022-11-29T05:58:57.684Z,738.00
2022-11-29T05:59:27.740Z,739.00
2022-11-29T05:59:57.792Z,743.00
2022-11-29T06:00:27.867Z,744.00
2022-11-29T06:00:57.895Z,744.00
2022-11-29T06:01:27.947Z,746.00
2022-11-29T06:01:57.984Z,747.00
2022-11-29T06:02:28.100Z,747.00
2022-11-29T06:02:58.115Z,748.00
2022-11-29T06:03:28.149Z,748.00
2022-11-29T06:03:58.163Z,748.00
2022-11-29T06:04:28.177Z,749.00
2022-11-29T06:04:58.188Z,747.00
2022-11-29T06:05:28.208Z,745.00
2022-11-29T06:05:58.192Z,746.00
2022-11-29T06:06:28.193Z,748.00
2022-11-29T06:06:58.213Z,751.00
2022-11-29T06:07:28.245Z,750.00
2022-11-29T06:07:58.284Z,754.00
2022-11-29T06:08:28.304Z,754.00
2022-11-29T06:08:58.317Z,755.00
2022-11-29T06:09:28.325Z,755.00
2022-11-29T06:10:01.645Z,756.00
2022-11-29T06:10:28.377Z,755.00
2022-11-29T06:10:58.397Z,754.00
2022-11-29T06:11:28.417Z,758.00
2022-11-29T06:11:58.477Z,769.00
2022-11-29T06:12:28.520Z,779.00
2022-11-29T06:12:58.567Z,781.00
2022-11-29T06:13:28.619Z,783.00
2022-11-29T06:13:58.669Z,781.00
2022-11-29T06:14:28.717Z,784.00
2022-11-29T06:14:58.763Z,785.00